WZZ43ZN LYBE-EDSB
Flight info
| Callsign | WZZ43ZN |
|---|---|
| Flight time | N/A |
| Altitude | 36000 |
| Route | TUVAR DCT RASIN DCT NAKUM DCT MAH DCT UTABA DCT SUL SUL1L |
| Aircraft | A21N/M-SDE1E2E3FGIJ1J4RWXY/LB1 |
Departure
| Time | 2026-04-28 15:02 |
|---|---|
| Airport | Belgrade Nikola Tesla Airport (LYBE) |
Arrival
| Time | N/A |
|---|---|
| Airport | Karlsruhe Baden-Baden Airport (EDSB) |
| Time | Latitude | Longitude | Altitude | Speed | Heading |
|---|---|---|---|---|---|
| 2026-04-28 14:29 | 44.81891 | 20.29250 | 312 ft | 0 kts | 302° |
| 2026-04-28 14:50 | 44.81886 | 20.29259 | 311 ft | 4 kts | 302° |
| 2026-04-28 14:51 | 44.81875 | 20.29284 | 312 ft | 4 kts | 311° |
| 2026-04-28 14:51 | 44.81855 | 20.29304 | 312 ft | 4 kts | 355° |
| 2026-04-28 14:51 | 44.81835 | 20.29294 | 311 ft | 3 kts | 32° |
| 2026-04-28 14:51 | 44.81831 | 20.29291 | 310 ft | 0 kts | 32° |
| 2026-04-28 14:57 | 44.81834 | 20.29294 | 311 ft | 2 kts | 32° |
| 2026-04-28 14:58 | 44.81862 | 20.29319 | 311 ft | 7 kts | 33° |
| 2026-04-28 14:58 | 44.81915 | 20.29369 | 312 ft | 12 kts | 33° |
| 2026-04-28 14:58 | 44.81997 | 20.29439 | 311 ft | 15 kts | 30° |
| 2026-04-28 14:58 | 44.82091 | 20.29518 | 313 ft | 17 kts | 30° |
| 2026-04-28 14:59 | 44.82179 | 20.29445 | 312 ft | 18 kts | 301° |
| 2026-04-28 14:59 | 44.82248 | 20.29291 | 313 ft | 19 kts | 302° |
| 2026-04-28 14:59 | 44.82320 | 20.29126 | 313 ft | 20 kts | 302° |
| 2026-04-28 14:59 | 44.82397 | 20.28952 | 311 ft | 21 kts | 302° |
| 2026-04-28 15:00 | 44.82512 | 20.28864 | 312 ft | 22 kts | 15° |
| 2026-04-28 15:00 | 44.82600 | 20.28977 | 312 ft | 12 kts | 59° |
| 2026-04-28 15:00 | 44.82631 | 20.29092 | 311 ft | 13 kts | 74° |
| 2026-04-28 15:00 | 44.82600 | 20.29214 | 311 ft | 15 kts | 121° |
| 2026-04-28 15:01 | 44.82515 | 20.29403 | 312 ft | 47 kts | 122° |
| 2026-04-28 15:01 | 44.82211 | 20.30092 | 311 ft | 117 kts | 122° |
| 2026-04-28 15:01 | 44.81680 | 20.31288 | 312 ft | 169 kts | 120° |
| 2026-04-28 15:01 | 44.81036 | 20.32670 | 889 ft | 165 kts | 122° |
| 2026-04-28 15:02 | 44.80400 | 20.33980 | 1550 ft | 163 kts | 121° |
| 2026-04-28 15:02 | 44.79744 | 20.35337 | 2021 ft | 170 kts | 119° |
| 2026-04-28 15:02 | 44.79090 | 20.36747 | 2550 ft | 173 kts | 118° |
| 2026-04-28 15:02 | 44.78259 | 20.37971 | 3110 ft | 181 kts | 152° |
| 2026-04-28 15:03 | 44.76976 | 20.38112 | 3467 ft | 197 kts | 193° |
| 2026-04-28 15:03 | 44.75700 | 20.37297 | 3934 ft | 207 kts | 215° |
| 2026-04-28 15:03 | 44.74509 | 20.36044 | 4441 ft | 224 kts | 217° |
| 2026-04-28 15:03 | 44.73171 | 20.34719 | 4898 ft | 245 kts | 217° |
| 2026-04-28 15:04 | 44.71733 | 20.33341 | 5616 ft | 252 kts | 216° |
| 2026-04-28 15:04 | 44.70275 | 20.31962 | 6526 ft | 253 kts | 217° |
| 2026-04-28 15:04 | 44.68945 | 20.30284 | 7110 ft | 263 kts | 237° |
| 2026-04-28 15:04 | 44.68245 | 20.27911 | 7766 ft | 266 kts | 263° |
| 2026-04-28 15:05 | 44.68373 | 20.25336 | 8556 ft | 267 kts | 288° |
| 2026-04-28 15:05 | 44.69137 | 20.22956 | 9419 ft | 269 kts | 298° |
| 2026-04-28 15:05 | 44.70072 | 20.20670 | 10269 ft | 271 kts | 299° |
| 2026-04-28 15:05 | 44.71012 | 20.18361 | 11047 ft | 272 kts | 298° |
| 2026-04-28 15:06 | 44.71941 | 20.16025 | 11808 ft | 275 kts | 298° |
| 2026-04-28 15:06 | 44.72864 | 20.13656 | 12565 ft | 278 kts | 297° |
| 2026-04-28 15:06 | 44.73781 | 20.11283 | 13326 ft | 281 kts | 297° |
| 2026-04-28 15:06 | 44.74724 | 20.08825 | 14064 ft | 284 kts | 297° |
| 2026-04-28 15:07 | 44.75653 | 20.06398 | 14727 ft | 287 kts | 297° |
| 2026-04-28 15:07 | 44.76602 | 20.03915 | 15397 ft | 289 kts | 297° |
| 2026-04-28 15:07 | 44.77561 | 20.01418 | 16080 ft | 291 kts | 297° |
| 2026-04-28 15:07 | 44.78531 | 19.98904 | 16766 ft | 294 kts | 297° |
| 2026-04-28 15:08 | 44.79504 | 19.96357 | 17460 ft | 296 kts | 297° |
| 2026-04-28 15:08 | 44.80476 | 19.93787 | 18159 ft | 298 kts | 297° |
| 2026-04-28 15:08 | 44.81460 | 19.91205 | 18778 ft | 300 kts | 297° |
| 2026-04-28 15:08 | 44.82450 | 19.88605 | 19373 ft | 302 kts | 297° |
| 2026-04-28 15:09 | 44.83440 | 19.85989 | 19972 ft | 303 kts | 297° |
| 2026-04-28 15:09 | 44.84434 | 19.83360 | 20557 ft | 305 kts | 297° |
| 2026-04-28 15:09 | 44.85438 | 19.80717 | 21145 ft | 307 kts | 297° |
| 2026-04-28 15:09 | 44.86102 | 19.78961 | 21525 ft | 308 kts | 297° |
| 2026-04-28 15:10 | 44.87452 | 19.75381 | 22279 ft | 310 kts | 297° |
| 2026-04-28 15:10 | 44.88473 | 19.72685 | 22849 ft | 312 kts | 296° |
| 2026-04-28 15:10 | 44.89496 | 19.69970 | 23411 ft | 314 kts | 296° |
| 2026-04-28 15:10 | 44.90517 | 19.67237 | 23912 ft | 316 kts | 296° |
| 2026-04-28 15:11 | 44.91550 | 19.64486 | 24369 ft | 318 kts | 296° |
| 2026-04-28 15:11 | 44.92586 | 19.61735 | 24824 ft | 319 kts | 297° |
| 2026-04-28 15:11 | 44.93630 | 19.58965 | 25276 ft | 320 kts | 297° |
| 2026-04-28 15:11 | 44.94677 | 19.56180 | 25723 ft | 322 kts | 297° |
| 2026-04-28 15:12 | 44.95722 | 19.53376 | 26168 ft | 323 kts | 296° |
| 2026-04-28 15:12 | 44.96758 | 19.50590 | 26586 ft | 325 kts | 297° |
| 2026-04-28 15:12 | 44.97816 | 19.47767 | 27017 ft | 326 kts | 297° |
| 2026-04-28 15:12 | 44.98876 | 19.44926 | 27420 ft | 328 kts | 297° |
| 2026-04-28 15:13 | 44.99942 | 19.42074 | 27811 ft | 329 kts | 297° |
| 2026-04-28 15:13 | 45.01009 | 19.39193 | 28198 ft | 331 kts | 297° |
| 2026-04-28 15:13 | 45.02084 | 19.36311 | 28582 ft | 333 kts | 297° |
| 2026-04-28 15:13 | 45.03167 | 19.33407 | 28956 ft | 334 kts | 297° |
| 2026-04-28 15:14 | 45.04246 | 19.30495 | 29321 ft | 336 kts | 297° |
| 2026-04-28 15:14 | 45.05328 | 19.27554 | 29684 ft | 337 kts | 297° |
| 2026-04-28 15:14 | 45.06421 | 19.24616 | 30015 ft | 339 kts | 297° |
| 2026-04-28 15:14 | 45.07518 | 19.21656 | 30314 ft | 340 kts | 297° |
| 2026-04-28 15:15 | 45.08621 | 19.18684 | 30597 ft | 341 kts | 297° |
| 2026-04-28 15:15 | 45.09363 | 19.16676 | 30790 ft | 342 kts | 297° |
| 2026-04-28 15:15 | 45.10817 | 19.12708 | 31152 ft | 344 kts | 297° |
| 2026-04-28 15:15 | 45.11922 | 19.09704 | 31408 ft | 345 kts | 297° |
| 2026-04-28 15:16 | 45.13069 | 19.06722 | 31648 ft | 346 kts | 299° |
| 2026-04-28 15:16 | 45.14300 | 19.03757 | 31784 ft | 351 kts | 300° |
| 2026-04-28 15:16 | 45.15556 | 19.00764 | 31876 ft | 356 kts | 300° |
| 2026-04-28 15:17 | 45.18119 | 18.94628 | 32026 ft | 368 kts | 300° |
| 2026-04-28 15:17 | 45.20743 | 18.88322 | 32174 ft | 379 kts | 300° |
| 2026-04-28 15:18 | 45.23468 | 18.81785 | 32355 ft | 390 kts | 300° |
| 2026-04-28 15:18 | 45.24845 | 18.78469 | 32582 ft | 391 kts | 299° |
| 2026-04-28 15:18 | 45.26227 | 18.75145 | 32892 ft | 390 kts | 299° |
| 2026-04-28 15:18 | 45.27602 | 18.71824 | 33200 ft | 389 kts | 299° |
| 2026-04-28 15:19 | 45.28975 | 18.68511 | 33520 ft | 388 kts | 299° |
| 2026-04-28 15:19 | 45.30337 | 18.65213 | 33821 ft | 387 kts | 299° |
| 2026-04-28 15:19 | 45.31677 | 18.61963 | 34108 ft | 386 kts | 299° |
| 2026-04-28 15:19 | 45.33029 | 18.58676 | 34347 ft | 385 kts | 299° |
| 2026-04-28 15:20 | 45.34379 | 18.55389 | 34560 ft | 385 kts | 299° |
| 2026-04-28 15:20 | 45.35727 | 18.52107 | 34765 ft | 384 kts | 299° |
| 2026-04-28 15:20 | 45.37073 | 18.48826 | 34945 ft | 384 kts | 299° |
| 2026-04-28 15:20 | 45.38414 | 18.45535 | 35127 ft | 385 kts | 299° |
| 2026-04-28 15:21 | 45.39762 | 18.42249 | 35319 ft | 385 kts | 299° |
| 2026-04-28 15:21 | 45.41110 | 18.38957 | 35497 ft | 385 kts | 299° |
| 2026-04-28 15:21 | 45.42457 | 18.35654 | 35679 ft | 385 kts | 299° |
| 2026-04-28 15:21 | 45.43801 | 18.32359 | 35851 ft | 384 kts | 299° |
| 2026-04-28 15:22 | 45.45142 | 18.29074 | 36018 ft | 384 kts | 299° |
| 2026-04-28 15:22 | 45.46485 | 18.25774 | 36128 ft | 386 kts | 299° |
| 2026-04-28 15:22 | 45.47828 | 18.22458 | 36136 ft | 387 kts | 299° |
| 2026-04-28 15:23 | 45.50517 | 18.15817 | 36101 ft | 387 kts | 299° |
| 2026-04-28 15:23 | 45.53210 | 18.09171 | 36112 ft | 385 kts | 299° |
| 2026-04-28 15:24 | 45.55884 | 18.02560 | 36101 ft | 384 kts | 299° |
| 2026-04-28 15:24 | 45.58545 | 17.95948 | 36099 ft | 384 kts | 299° |
| 2026-04-28 15:25 | 45.61199 | 17.89333 | 36101 ft | 384 kts | 299° |
| 2026-04-28 15:25 | 45.63861 | 17.82708 | 36095 ft | 385 kts | 299° |
| 2026-04-28 15:26 | 45.66501 | 17.76103 | 36098 ft | 385 kts | 298° |
| 2026-04-28 15:26 | 45.69152 | 17.69442 | 36097 ft | 385 kts | 298° |
| 2026-04-28 15:27 | 45.71793 | 17.62778 | 36097 ft | 385 kts | 298° |
| 2026-04-28 15:27 | 45.74438 | 17.56105 | 36097 ft | 385 kts | 298° |
| 2026-04-28 15:28 | 45.77093 | 17.49428 | 36097 ft | 385 kts | 298° |
| 2026-04-28 15:28 | 45.79740 | 17.42750 | 36094 ft | 385 kts | 298° |
| 2026-04-28 15:29 | 45.82379 | 17.36057 | 36092 ft | 385 kts | 298° |
| 2026-04-28 15:29 | 45.85010 | 17.29365 | 36094 ft | 385 kts | 298° |
| 2026-04-28 15:30 | 45.87625 | 17.22665 | 36102 ft | 384 kts | 298° |
| 2026-04-28 15:30 | 45.90244 | 17.15979 | 36094 ft | 384 kts | 298° |
| 2026-04-28 15:31 | 45.92857 | 17.09302 | 36095 ft | 384 kts | 298° |
| 2026-04-28 15:31 | 45.95023 | 17.03737 | 36095 ft | 383 kts | 298° |
| 2026-04-28 15:32 | 45.98050 | 16.95960 | 36100 ft | 384 kts | 298° |
| 2026-04-28 15:32 | 46.00645 | 16.89252 | 36097 ft | 384 kts | 298° |
| 2026-04-28 15:33 | 46.03222 | 16.82587 | 36093 ft | 384 kts | 298° |
| 2026-04-28 15:33 | 46.05398 | 16.76948 | 36097 ft | 385 kts | 298° |
| 2026-04-28 15:34 | 46.07990 | 16.70213 | 36099 ft | 384 kts | 297° |
| 2026-04-28 15:34 | 46.10273 | 16.63259 | 36099 ft | 384 kts | 292° |
| 2026-04-28 15:35 | 46.12273 | 16.56182 | 36101 ft | 384 kts | 292° |
| 2026-04-28 15:35 | 46.15313 | 16.45460 | 36099 ft | 384 kts | 292° |
| 2026-04-28 15:36 | 46.17328 | 16.38358 | 36107 ft | 385 kts | 292° |
| 2026-04-28 15:36 | 46.19352 | 16.31207 | 36102 ft | 385 kts | 291° |
| 2026-04-28 15:37 | 46.21372 | 16.24044 | 36109 ft | 385 kts | 291° |
| 2026-04-28 15:37 | 46.23388 | 16.16881 | 36130 ft | 385 kts | 292° |
| 2026-04-28 15:38 | 46.25390 | 16.09722 | 36110 ft | 384 kts | 292° |
| 2026-04-28 15:38 | 46.27393 | 16.02559 | 36110 ft | 385 kts | 291° |
| 2026-04-28 15:39 | 46.29388 | 15.95375 | 36113 ft | 385 kts | 291° |
| 2026-04-28 15:39 | 46.31379 | 15.88198 | 36111 ft | 384 kts | 291° |
| 2026-04-28 15:40 | 46.33376 | 15.81013 | 36108 ft | 385 kts | 291° |
| 2026-04-28 15:40 | 46.35367 | 15.73819 | 36108 ft | 385 kts | 291° |
| 2026-04-28 15:41 | 46.37347 | 15.66619 | 36108 ft | 385 kts | 291° |